Terminal Aerodrome Forecast
Issued by NWS

Home | Current Version | Previous Version | Text Only | Print | Product List | Glossary Off
Versions: 1 2 3 4 5 6 7 8 9 10 11 12 13 14 15 16 17 18 19 20

000
FTUS43 KLSX 242333
TAFCPS
TAF
KCPS 242333Z 2500/2524 13014G20KT P6SM SCT120 BKN200
     FM250600 16010KT P6SM BKN120 WS020/20040KT
     FM251300 22008KT P6SM BKN130
     FM251500 25011G19KT P6SM SCT080
     FM252000 26014G24KT P6SM BKN050=

USA.gov is the U.S. government's official web portal to all federal, state and local government web resources and services.